Time;durP1;ratioP1;P1;durP2;ratioP2;P2;SDS_P1;SDS_P2;PMS_P1;PMS_P2;Temp;Humidity;BMP_temperature;BMP_pressure;BME280_temperature;BME280_humidity;BME280_pressure;Samples;Min_cycle;Max_cycle;Signal;HPM_P1;HPM_P2
2023/07/31 00:00:15;;;;;;;3.10;2.55;;;;;;;17.53;78.60;100489.66;682229;29;1422;-78
2023/07/31 00:00:35;;;;;;;4.53;2.67;;;;;;;17.47;78.54;100482.66;686647;28;1081;-77
2023/07/31 00:00:56;;;;;;;4.90;2.80;;;;;;;17.51;78.51;100489.66;691136;28;712;-78
2023/07/31 00:01:17;;;;;;;4.72;2.65;;;;;;;17.47;78.57;100485.31;685386;28;1144;-78
2023/07/31 00:01:37;;;;;;;4.18;2.70;;;;;;;17.44;78.63;100477.38;685447;28;1233;-77
2023/07/31 00:01:58;;;;;;;5.40;2.70;;;;;;;17.52;78.55;100490.56;685775;28;1240;-78
2023/07/31 00:02:19;;;;;;;5.75;2.90;;;;;;;17.45;78.60;100479.13;687872;28;1167;-79
2023/07/31 00:02:39;;;;;;;7.00;2.90;;;;;;;17.48;78.53;100473.88;691770;28;1380;-78
2023/07/31 00:03:00;;;;;;;5.70;3.08;;;;;;;17.42;78.49;100465.97;688494;28;756;-79
2023/07/31 00:03:20;;;;;;;6.53;3.10;;;;;;;17.48;78.59;100483.53;686866;28;1594;-79
2023/07/31 00:03:41;;;;;;;4.70;3.00;;;;;;;17.42;78.68;100481.81;684781;28;1350;-79
2023/07/31 00:04:02;;;;;;;4.63;2.70;;;;;;;17.41;78.81;100474.78;683073;28;1186;-78
2023/07/31 00:04:22;;;;;;;3.50;2.67;;;;;;;17.40;78.63;100475.66;682474;28;1303;-79
2023/07/31 00:04:43;;;;;;;3.30;2.50;;;;;;;17.41;78.69;100472.13;680019;29;1307;-77
2023/07/31 00:05:05;;;;;;;3.33;2.53;;;;;;;17.48;78.39;100483.53;685054;28;1072;-79
2023/07/31 00:05:25;;;;;;;3.15;2.50;;;;;;;17.43;78.51;100482.66;681802;29;1972;-79
2023/07/31 00:05:46;;;;;;;3.25;2.72;;;;;;;17.44;78.47;100480.03;678168;28;1241;-79
2023/07/31 00:06:06;;;;;;;3.30;2.80;;;;;;;17.39;78.55;100469.50;682937;29;1092;-77
2023/07/31 00:06:27;;;;;;;3.40;2.80;;;;;;;17.44;78.52;100482.66;684513;28;1800;-78
2023/07/31 00:06:48;;;;;;;3.20;2.70;;;;;;;17.43;78.62;100477.38;688240;28;958;-79
2023/07/31 00:07:08;;;;;;;3.57;2.80;;;;;;;17.39;78.72;100473.88;688225;28;1374;-78
2023/07/31 00:07:29;;;;;;;4.43;2.90;;;;;;;17.46;78.76;100490.56;687707;28;1337;-77
2023/07/31 00:07:50;;;;;;;5.47;3.30;;;;;;;17.43;78.50;100480.91;685597;28;1608;-78
2023/07/31 00:08:11;;;;;;;5.30;3.40;;;;;;;17.44;78.49;100481.81;685689;28;1264;-78
2023/07/31 00:08:32;;;;;;;5.18;3.30;;;;;;;17.41;78.76;100480.06;680115;29;1497;-77
2023/07/31 00:08:52;;;;;;;4.50;3.10;;;;;;;17.40;78.68;100483.59;677462;29;1586;-79
2023/07/31 00:09:13;;;;;;;4.57;3.10;;;;;;;17.39;78.52;100471.25;680099;28;1341;-78
2023/07/31 00:09:34;;;;;;;4.30;3.00;;;;;;;17.43;78.61;100480.91;685519;28;1372;-79
2023/07/31 00:09:56;;;;;;;4.67;3.20;;;;;;;17.44;78.69;100481.81;691138;28;1393;-77
2023/07/31 00:10:17;;;;;;;4.93;3.20;;;;;;;17.45;78.55;100479.13;687123;28;1134;-79
2023/07/31 00:10:37;;;;;;;4.20;3.20;;;;;;;17.36;78.63;100472.16;685366;28;1144;-78
2023/07/31 00:10:58;;;;;;;3.63;3.00;;;;;;;17.44;78.54;100474.75;682729;28;2001;-78
2023/07/31 00:11:18;;;;;;;3.92;3.10;;;;;;;17.44;78.55;100474.75;685363;28;1175;-78
2023/07/31 00:11:39;;;;;;;4.37;3.13;;;;;;;17.43;78.54;100475.63;685581;28;1005;-78
2023/07/31 00:11:59;;;;;;;5.28;3.28;;;;;;;17.45;78.67;100483.56;686666;28;1604;-77
2023/07/31 00:12:20;;;;;;;5.45;3.20;;;;;;;17.42;78.61;100473.88;679642;28;1629;-78
2023/07/31 00:12:43;;;;;;;5.43;3.20;;;;;;;17.46;78.67;100486.16;680164;29;948;-78
2023/07/31 00:13:04;;;;;;;4.82;3.10;;;;;;;17.44;78.64;100480.03;685256;28;1398;-79
2023/07/31 00:13:25;;;;;;;5.40;2.97;;;;;;;17.43;78.62;100469.47;693241;28;1066;-77
2023/07/31 00:13:45;;;;;;;5.40;3.10;;;;;;;17.45;78.44;100478.28;690832;28;1194;-78
2023/07/31 00:14:06;;;;;;;5.00;2.97;;;;;;;17.42;78.58;100473.00;686344;28;1891;-77
2023/07/31 00:14:27;;;;;;;3.80;3.00;;;;;;;17.45;78.66;100470.38;683002;28;1207;-77
2023/07/31 00:14:47;;;;;;;3.85;2.92;;;;;;;17.48;78.35;100476.50;679954;28;1215;-77
2023/07/31 00:15:08;;;;;;;3.88;3.00;;;;;;;17.45;78.31;100465.94;686184;28;1636;-77
2023/07/31 00:15:29;;;;;;;4.05;3.17;;;;;;;17.47;78.38;100472.13;687346;28;1215;-78
2023/07/31 00:15:50;;;;;;;3.97;3.30;;;;;;;17.48;78.48;100468.59;687358;28;882;-77
2023/07/31 00:16:10;;;;;;;5.23;3.40;;;;;;;17.45;78.29;100467.72;688193;28;1048;-77
2023/07/31 00:16:31;;;;;;;5.70;3.50;;;;;;;17.42;78.56;100473.00;687943;28;1087;-77
2023/07/31 00:16:52;;;;;;;5.95;3.67;;;;;;;17.44;78.69;100477.38;685493;28;1181;-77
2023/07/31 00:17:12;;;;;;;4.90;3.60;;;;;;;17.41;78.69;100466.88;685932;28;1143;-77
2023/07/31 00:17:33;;;;;;;4.60;3.50;;;;;;;17.39;78.66;100469.50;682407;28;2104;-78
2023/07/31 00:17:54;;;;;;;4.10;3.20;;;;;;;17.42;78.66;100463.34;685554;28;1354;-77
2023/07/31 00:18:15;;;;;;;4.60;3.30;;;;;;;17.46;78.69;100475.59;682553;28;1287;-77
2023/07/31 00:18:35;;;;;;;6.40;3.70;;;;;;;17.42;78.74;100471.25;682772;28;1052;-77
2023/07/31 00:18:56;;;;;;;7.30;3.95;;;;;;;17.43;78.83;100475.63;682901;28;1358;-77
2023/07/31 00:19:17;;;;;;;7.00;4.28;;;;;;;17.38;78.83;100461.59;680993;29;1079;-77
2023/07/31 00:19:37;;;;;;;5.90;4.20;;;;;;;17.39;78.77;100468.63;682640;28;1687;-77
2023/07/31 00:19:58;;;;;;;6.40;4.00;;;;;;;17.43;78.98;100472.13;685672;28;706;-77
2023/07/31 00:20:19;;;;;;;6.47;3.95;;;;;;;17.43;78.97;100475.63;682747;28;1250;-77
2023/07/31 00:20:39;;;;;;;6.20;3.88;;;;;;;17.42;78.94;100467.72;682690;29;1125;-77
2023/07/31 00:21:00;;;;;;;4.57;3.60;;;;;;;17.36;78.85;100453.69;686355;28;841;-77
2023/07/31 00:21:21;;;;;;;4.60;3.53;;;;;;;17.43;78.96;100466.84;689303;28;1330;-77
2023/07/31 00:22:07;;;;;;;5.70;3.50;;;;;;;17.48;78.83;100472.97;684361;28;899;-77
2023/07/31 00:22:28;;;;;;;6.50;4.00;;;;;;;17.47;78.65;100466.84;684908;28;1163;-77
2023/07/31 00:22:49;;;;;;;6.57;3.92;;;;;;;17.42;78.72;100463.34;685369;28;1903;-77
2023/07/31 00:23:09;;;;;;;6.10;3.70;;;;;;;17.43;78.71;100465.09;690836;28;1402;-78
2023/07/31 00:23:30;;;;;;;4.40;3.45;;;;;;;17.42;78.69;100457.19;685288;28;1338;-77
2023/07/31 00:23:51;;;;;;;4.70;3.40;;;;;;;17.38;78.65;100461.59;682258;29;1873;-77
2023/07/31 00:24:11;;;;;;;4.40;3.30;;;;;;;17.39;78.56;100460.69;688006;28;1382;-77
2023/07/31 00:24:32;;;;;;;5.27;3.60;;;;;;;17.43;78.74;100478.28;685414;28;1220;-78
2023/07/31 00:24:52;;;;;;;5.10;3.80;;;;;;;17.42;78.73;100468.63;682858;29;733;-77
2023/07/31 00:25:13;;;;;;;5.90;4.10;;;;;;;17.38;78.82;100464.22;685363;28;1107;-77
2023/07/31 00:25:33;;;;;;;5.00;3.83;;;;;;;17.45;78.81;100478.28;679646;29;1914;-76
2023/07/31 00:25:54;;;;;;;4.97;3.53;;;;;;;17.39;78.79;100464.22;685382;28;1077;-77
2023/07/31 00:26:15;;;;;;;4.45;3.40;;;;;;;17.40;78.82;100473.03;684853;28;1585;-77
2023/07/31 00:26:36;;;;;;;5.60;3.60;;;;;;;17.44;78.99;100472.13;686845;28;1524;-77
2023/07/31 00:26:57;;;;;;;5.70;3.80;;;;;;;17.44;78.45;100464.19;685737;28;819;-77
2023/07/31 00:27:18;;;;;;;5.60;3.70;;;;;;;17.42;78.71;100463.34;683995;28;1378;-77
2023/07/31 00:27:38;;;;;;;5.10;3.50;;;;;;;17.40;78.67;100465.13;685489;28;1009;-77
2023/07/31 00:27:59;;;;;;;5.43;3.60;;;;;;;17.42;78.60;100473.00;685604;28;776;-77
2023/07/31 00:28:20;;;;;;;5.40;3.70;;;;;;;17.39;78.80;100465.97;688701;28;1280;-78
2023/07/31 00:28:41;;;;;;;4.70;3.65;;;;;;;17.38;78.84;100466.88;688201;28;1252;-77
2023/07/31 00:29:02;;;;;;;4.18;3.65;;;;;;;17.43;78.70;100473.00;682933;29;1017;-78
2023/07/31 00:29:22;;;;;;;4.30;3.50;;;;;;;17.47;78.60;100473.88;682494;28;1446;-77
2023/07/31 00:29:43;;;;;;;4.27;3.50;;;;;;;17.40;78.64;100459.84;682586;29;1388;-77
2023/07/31 00:30:04;;;;;;;4.40;3.33;;;;;;;17.37;78.65;100458.09;682930;29;1017;-77
2023/07/31 00:30:26;;;;;;;4.20;3.33;;;;;;;17.41;78.69;100466.88;686982;28;1608;-77
2023/07/31 00:30:48;;;;;;;4.65;3.58;;;;;;;17.41;78.71;100466.88;688135;28;1092;-77
2023/07/31 00:31:08;;;;;;;4.32;3.40;;;;;;;17.45;78.59;100468.59;688165;28;1331;-78
2023/07/31 00:31:29;;;;;;;4.40;3.47;;;;;;;17.39;78.58;100463.34;684924;28;1370;-78
2023/07/31 00:31:49;;;;;;;4.53;3.25;;;;;;;17.47;78.74;100463.31;685252;28;1432;-77
2023/07/31 00:32:11;;;;;;;4.75;3.33;;;;;;;17.41;78.43;100456.31;685285;28;1422;-78
2023/07/31 00:32:32;;;;;;;5.80;3.20;;;;;;;17.40;78.32;100451.94;685114;28;1148;-78
2023/07/31 00:32:54;;;;;;;5.45;3.30;;;;;;;17.42;78.66;100460.69;685532;28;886;-77
2023/07/31 00:33:14;;;;;;;5.22;3.40;;;;;;;17.38;78.36;100461.59;685160;28;1154;-78
2023/07/31 00:33:36;;;;;;;4.18;3.40;;;;;;;17.33;78.71;100453.69;684982;28;1217;-77
2023/07/31 00:33:57;;;;;;;4.60;3.40;;;;;;;17.31;78.68;100454.59;688378;28;788;-77
2023/07/31 00:34:18;;;;;;;5.10;3.50;;;;;;;17.35;78.77;100458.97;687910;28;1155;-77
2023/07/31 00:34:38;;;;;;;5.03;3.50;;;;;;;17.37;78.71;100465.13;686686;28;2020;-77
2023/07/31 00:34:59;;;;;;;5.72;3.45;;;;;;;17.31;78.69;100452.84;685859;28;783;-78
2023/07/31 00:35:20;;;;;;;5.90;3.40;;;;;;;17.31;78.71;100458.13;682659;29;1203;-77
2023/07/31 00:36:12;;;;;;;6.00;3.40;;;;;;;17.37;78.76;100470.38;679568;29;1031;-77
2023/07/31 00:36:33;;;;;;;4.20;3.30;;;;;;;17.31;78.66;100457.22;687119;28;1336;-78
2023/07/31 00:36:53;;;;;;;4.50;3.40;;;;;;;17.32;78.85;100466.91;685027;28;2006;-77
2023/07/31 00:37:15;;;;;;;4.28;3.33;;;;;;;17.25;78.54;100451.13;687571;28;1080;-77
2023/07/31 00:37:35;;;;;;;4.60;3.35;;;;;;;17.29;78.71;100461.63;688141;28;1079;-77
2023/07/31 00:37:58;;;;;;;5.63;3.50;;;;;;;17.30;78.77;100469.56;677448;29;1371;-77
2023/07/31 00:38:18;;;;;;;5.95;3.80;;;;;;;17.24;78.67;100456.38;678437;29;1146;-77
2023/07/31 00:38:39;;;;;;;5.78;3.80;;;;;;;17.24;78.80;100459.91;682656;28;1086;-78
2023/07/31 00:39:00;;;;;;;4.60;3.60;;;;;;;17.23;78.64;100447.59;681728;28;1216;-78
2023/07/31 00:39:21;;;;;;;4.47;3.60;;;;;;;17.24;78.83;100459.91;682697;28;1063;-77
2023/07/31 00:39:42;;;;;;;4.47;3.70;;;;;;;17.21;78.92;100457.28;682584;28;1675;-77
2023/07/31 00:40:03;;;;;;;4.40;3.65;;;;;;;17.28;78.85;100465.16;677331;29;1900;-77
2023/07/31 00:40:24;;;;;;;4.55;3.53;;;;;;;17.24;78.85;100453.75;683051;28;1080;-78
2023/07/31 00:40:44;;;;;;;4.32;3.50;;;;;;;17.26;78.86;100458.16;685689;28;1175;-77
2023/07/31 00:41:05;;;;;;;4.40;3.33;;;;;;;17.25;78.80;100460.78;688142;28;1024;-77
2023/07/31 00:41:25;;;;;;;4.90;3.42;;;;;;;17.27;78.51;100456.38;690305;28;1109;-78
2023/07/31 00:41:46;;;;;;;5.40;3.30;;;;;;;17.25;78.85;100456.41;687989;28;1484;-77
2023/07/31 00:42:07;;;;;;;5.55;3.30;;;;;;;17.22;78.86;100451.13;682728;28;1399;-77
2023/07/31 00:42:28;;;;;;;4.93;3.30;;;;;;;17.24;78.92;100448.47;679627;29;1212;-78
2023/07/31 00:42:48;;;;;;;4.82;3.42;;;;;;;17.23;78.54;100452.88;682758;29;1124;-78
2023/07/31 00:43:09;;;;;;;4.73;3.33;;;;;;;17.27;78.58;100456.38;680196;29;1090;-78
2023/07/31 00:43:29;;;;;;;4.20;3.10;;;;;;;17.20;78.86;100444.94;690421;28;1209;-77
2023/07/31 00:43:50;;;;;;;3.90;3.10;;;;;;;17.21;78.49;100448.47;689954;28;1255;-77
2023/07/31 00:44:10;;;;;;;4.45;3.22;;;;;;;17.20;78.79;100452.84;685364;28;1045;-78
2023/07/31 00:44:31;;;;;;;5.03;3.20;;;;;;;17.18;78.67;100444.09;685042;28;2027;-78
2023/07/31 00:44:52;;;;;;;5.13;3.00;;;;;;;17.17;78.69;100458.16;682777;29;1278;-77
2023/07/31 00:45:12;;;;;;;5.05;3.00;;;;;;;17.18;78.82;100453.75;680586;28;1198;-78
2023/07/31 00:45:33;;;;;;;4.80;2.93;;;;;;;17.19;78.83;100464.28;679300;29;1980;-78
2023/07/31 00:45:55;;;;;;;5.00;3.10;;;;;;;17.14;78.69;100450.25;685431;28;804;-77
2023/07/31 00:46:15;;;;;;;4.20;2.80;;;;;;;17.15;78.84;100454.63;681992;28;1158;-77
2023/07/31 00:46:36;;;;;;;4.50;3.00;;;;;;;17.19;78.82;100464.28;681925;29;1675;-77
2023/07/31 00:46:59;;;;;;;4.28;3.00;;;;;;;17.12;78.78;100446.75;682876;28;869;-78
2023/07/31 00:47:19;;;;;;;4.47;3.15;;;;;;;17.13;78.86;100451.13;685048;28;1190;-77
2023/07/31 00:47:40;;;;;;;4.10;2.97;;;;;;;17.18;78.87;100457.28;690801;28;1898;-78
2023/07/31 00:48:01;;;;;;;4.05;2.88;;;;;;;17.11;78.80;100450.28;685503;28;1169;-78
2023/07/31 00:48:23;;;;;;;3.95;2.97;;;;;;;17.12;79.02;100455.53;684296;28;1159;-77
2023/07/31 00:48:44;;;;;;;4.40;3.10;;;;;;;17.10;78.80;100446.75;687843;28;1372;-78
2023/07/31 00:49:05;;;;;;;4.30;3.10;;;;;;;17.11;78.74;100452.91;682863;28;1188;-78
2023/07/31 00:49:26;;;;;;;4.32;3.00;;;;;;;17.10;78.91;100445.88;682686;28;1134;-78
2023/07/31 00:49:48;;;;;;;3.80;2.70;;;;;;;17.09;78.75;100452.91;686709;28;1339;-77
2023/07/31 00:50:09;;;;;;;3.53;2.70;;;;;;;17.09;78.90;100455.53;682820;28;1366;-78
2023/07/31 00:50:30;;;;;;;4.03;2.83;;;;;;;17.09;79.04;100450.25;682600;29;1155;-78
2023/07/31 00:50:52;;;;;;;4.18;2.90;;;;;;;17.06;78.90;100445.03;685650;28;834;-78
2023/07/31 00:51:13;;;;;;;4.63;2.90;;;;;;;17.07;78.81;100451.16;685420;28;1156;-78
2023/07/31 00:51:34;;;;;;;4.35;3.08;;;;;;;17.07;78.65;100445.88;682568;28;1277;-78
2023/07/31 00:51:57;;;;;;;4.45;3.17;;;;;;;17.04;78.81;100441.53;685655;28;1477;-78
2023/07/31 00:52:20;;;;;;;3.88;2.92;;;;;;;17.07;78.84;100451.16;684976;28;1178;-77
2023/07/31 00:52:41;;;;;;;4.20;2.80;;;;;;;17.06;78.84;100444.13;682965;29;1006;-78
2023/07/31 00:53:01;;;;;;;5.30;2.60;;;;;;;16.99;78.92;100436.25;682965;28;1647;-78
2023/07/31 00:53:24;;;;;;;5.45;2.60;;;;;;;17.05;78.75;100437.09;681808;29;1097;-77
2023/07/31 00:53:46;;;;;;;4.85;2.60;;;;;;;17.03;78.85;100444.16;683476;28;1529;-78
2023/07/31 00:54:07;;;;;;;5.30;2.72;;;;;;;17.01;78.84;100440.66;687056;28;1280;-78
2023/07/31 00:54:28;;;;;;;4.88;2.70;;;;;;;17.02;78.98;100438.00;688128;28;1407;-78
2023/07/31 00:54:50;;;;;;;4.90;2.60;;;;;;;17.01;78.83;100443.28;685591;28;1443;-78
2023/07/31 00:55:11;;;;;;;4.10;2.70;;;;;;;17.02;78.58;100443.25;690616;28;1361;-78
2023/07/31 00:55:31;;;;;;;4.22;2.80;;;;;;;16.99;78.77;100441.50;688037;28;1196;-77
2023/07/31 00:55:52;;;;;;;3.90;2.80;;;;;;;17.04;78.71;100440.63;690673;28;815;-78
2023/07/31 00:56:15;;;;;;;4.03;2.67;;;;;;;17.02;78.65;100440.63;685962;28;1511;-79
2023/07/31 00:56:50;;;;;;;3.67;2.63;;;;;;;17.04;78.86;100448.53;685551;28;1489;-78
2023/07/31 00:57:11;;;;;;;5.22;2.70;;;;;;;17.03;78.90;100447.66;689315;28;1725;-78
2023/07/31 00:57:33;;;;;;;5.47;2.80;;;;;;;16.99;78.73;100444.16;687810;28;1958;-78
2023/07/31 00:57:55;;;;;;;5.63;2.80;;;;;;;16.98;78.73;100442.41;691126;28;871;-77
2023/07/31 00:58:16;;;;;;;3.60;2.50;;;;;;;16.96;78.66;100435.41;685513;28;1222;-77
2023/07/31 00:58:36;;;;;;;3.37;2.30;;;;;;;16.98;78.75;100442.41;685251;28;1628;-78
2023/07/31 00:58:57;;;;;;;3.30;2.45;;;;;;;17.03;78.83;100449.44;688322;28;1325;-78
2023/07/31 00:59:18;;;;;;;3.30;2.30;;;;;;;16.98;78.68;100441.53;684907;28;1067;-77
2023/07/31 00:59:39;;;;;;;3.80;2.60;;;;;;;17.01;78.79;100440.66;682173;28;1271;-78
2023/07/31 01:00:00;;;;;;;3.80;2.60;;;;;;;17.02;78.76;100452.94;685550;28;1382;-77
2023/07/31 01:00:21;;;;;;;3.50;2.60;;;;;;;16.99;78.79;100438.88;690598;28;1161;-78
2023/07/31 01:00:41;;;;;;;3.38;2.40;;;;;;;16.98;78.69;100436.28;682691;29;1029;-78
2023/07/31 01:01:02;;;;;;;3.55;2.45;;;;;;;17.01;78.81;100436.25;682436;29;1133;-78
2023/07/31 01:01:23;;;;;;;3.75;2.47;;;;;;;16.96;78.87;100428.34;682618;29;1112;-78
2023/07/31 01:01:44;;;;;;;3.65;2.60;;;;;;;16.97;78.67;100429.25;682731;28;967;-78
2023/07/31 01:02:05;;;;;;;4.70;2.30;;;;;;;16.97;78.90;100430.09;685565;28;1084;-78
2023/07/31 01:02:26;;;;;;;4.90;2.40;;;;;;;16.99;78.96;100428.34;685206;28;1116;-79
2023/07/31 01:02:51;;;;;;;4.82;2.45;;;;;;;16.97;78.67;100430.09;684779;28;1200;-78
2023/07/31 01:03:12;;;;;;;3.30;2.50;;;;;;;17.04;78.85;100443.25;688225;28;2064;-78
2023/07/31 01:03:33;;;;;;;3.10;2.40;;;;;;;17.01;78.69;100436.25;689340;28;1542;-78
2023/07/31 01:03:54;;;;;;;3.40;2.38;;;;;;;17.00;78.61;100431.84;684839;28;1910;-78
2023/07/31 01:04:16;;;;;;;3.95;2.60;;;;;;;17.01;78.50;100438.03;685203;28;1254;-78
2023/07/31 01:04:37;;;;;;;3.47;2.50;;;;;;;17.02;78.77;100437.13;690599;28;1446;-79
2023/07/31 01:04:58;;;;;;;3.88;2.40;;;;;;;16.98;78.68;100436.28;688351;28;1292;-78
2023/07/31 01:05:29;;;;;;;3.80;2.40;;;;;;;16.96;78.78;100430.13;692076;28;1417;-78
2023/07/31 01:06:08;;;;;;;4.40;2.45;;;;;;;17.05;78.68;100439.75;682275;28;1131;-79
2023/07/31 01:07:03;;;;;;;4.30;2.50;;;;;;;17.04;78.84;100444.16;689968;28;1675;-79
2023/07/31 01:07:42;;;;;;;3.38;2.55;;;;;;;17.05;78.59;100443.28;689004;28;1181;-78
2023/07/31 01:08:18;;;;;;;4.00;2.88;;;;;;;16.99;78.59;100428.34;690834;28;1147;-78
2023/07/31 01:08:58;;;;;;;3.58;3.00;;;;;;;17.05;78.64;100438.00;685424;28;1089;-79
2023/07/31 01:09:46;;;;;;;4.18;3.42;;;;;;;16.93;78.59;100420.47;683598;28;1531;-78
2023/07/31 01:10:07;;;;;;;4.70;3.40;;;;;;;17.01;78.60;100433.59;686252;28;1228;-78
2023/07/31 01:10:34;;;;;;;5.90;4.00;;;;;;;16.97;78.79;100430.09;681367;29;1792;-78
2023/07/31 01:11:03;;;;;;;6.80;4.85;;;;;;;16.93;78.60;100416.94;685507;28;908;-78
2023/07/31 01:11:29;;;;;;;6.78;5.28;;;;;;;16.90;78.94;100422.25;689268;28;1630;-78
2023/07/31 01:11:56;;;;;;;7.15;6.00;;;;;;;16.97;78.62;100432.75;688010;28;2018;-78
2023/07/31 01:12:17;;;;;;;8.55;6.50;;;;;;;16.91;78.67;100430.13;686092;28;1237;-77
2023/07/31 01:12:39;;;;;;;8.63;6.40;;;;;;;16.91;78.84;100424.84;684981;28;2957;-78
2023/07/31 01:13:00;;;;;;;8.30;5.95;;;;;;;16.97;78.65;100431.88;686989;28;1455;-78
2023/07/31 01:13:23;;;;;;;8.98;5.95;;;;;;;16.94;78.79;100416.94;686849;28;1158;-78
2023/07/31 01:13:45;;;;;;;8.95;5.82;;;;;;;16.93;78.61;100425.75;685149;28;1220;-78
2023/07/31 01:14:06;;;;;;;9.85;6.20;;;;;;;16.93;78.73;100422.22;680256;29;962;-78
2023/07/31 01:14:27;;;;;;;9.88;6.95;;;;;;;16.94;78.69;100419.59;685252;28;1194;-78
2023/07/31 01:15:04;;;;;;;10.00;7.40;;;;;;;16.99;78.82;100430.97;690141;28;1661;-77
2023/07/31 01:15:25;;;;;;;12.05;7.45;;;;;;;17.01;78.79;100428.34;687720;28;1198;-77
2023/07/31 01:15:45;;;;;;;11.50;7.30;;;;;;;17.01;78.52;100427.47;687961;28;1866;-78
2023/07/31 01:16:06;;;;;;;10.30;7.47;;;;;;;17.02;78.79;100432.72;690983;28;1003;-78
2023/07/31 01:16:27;;;;;;;10.40;7.50;;;;;;;17.02;78.91;100423.94;690406;28;1328;-78
2023/07/31 01:16:47;;;;;;;10.25;7.32;;;;;;;16.98;78.75;100418.69;684917;28;2021;-78
2023/07/31 01:17:08;;;;;;;10.00;6.95;;;;;;;17.01;78.78;100417.78;682862;29;1100;-78
2023/07/31 01:17:29;;;;;;;9.63;7.00;;;;;;;17.01;78.69;100423.06;685164;28;1241;-78
2023/07/31 01:17:49;;;;;;;10.90;7.43;;;;;;;17.02;78.70;100422.19;683238;28;1745;-77
2023/07/31 01:18:10;;;;;;;10.70;7.68;;;;;;;17.06;78.71;100425.69;682761;28;1100;-77
2023/07/31 01:18:31;;;;;;;12.07;8.70;;;;;;;17.11;78.53;100423.91;687283;28;1320;-78
2023/07/31 01:18:51;;;;;;;13.65;9.45;;;;;;;17.08;78.42;100421.28;685510;28;814;-78
2023/07/31 01:19:14;;;;;;;14.63;10.00;;;;;;;17.11;78.50;100426.53;682815;28;1624;-78
2023/07/31 01:19:35;;;;;;;14.95;10.00;;;;;;;17.08;78.47;100421.28;690727;28;1128;-77
2023/07/31 01:20:00;;;;;;;14.47;10.00;;;;;;;17.04;78.57;100415.16;685619;28;1261;-77
2023/07/31 01:20:23;;;;;;;16.93;10.20;;;;;;;17.07;78.54;100424.78;687083;28;1166;-78
2023/07/31 01:20:53;;;;;;;16.63;10.00;;;;;;;17.03;78.44;100417.78;685374;28;1499;-78
2023/07/31 01:21:34;;;;;;;16.98;10.70;;;;;;;17.12;78.56;100428.28;686945;28;1401;-78
2023/07/31 01:22:31;;;;;;;14.05;10.23;;;;;;;17.14;78.56;100429.16;692630;28;1232;-78
2023/07/31 01:23:04;;;;;;;14.70;10.77;;;;;;;17.16;78.55;100429.16;688442;28;1202;-78
2023/07/31 01:24:06;;;;;;;15.70;10.95;;;;;;;17.17;78.59;100425.63;686087;28;1243;-79
2023/07/31 01:24:52;;;;;;;14.65;10.20;;;;;;;17.11;78.52;100423.91;679005;29;1824;-78
2023/07/31 01:25:49;;;;;;;13.25;10.02;;;;;;;17.16;78.70;100421.25;679596;28;1061;-77
2023/07/31 01:26:18;;;;;;;14.48;10.65;;;;;;;17.17;78.76;100421.25;683523;28;1163;-77
2023/07/31 01:26:40;;;;;;;15.23;10.70;;;;;;;17.22;78.78;100429.16;683227;28;1439;-77
2023/07/31 01:27:15;;;;;;;14.98;10.32;;;;;;;17.23;78.80;100431.78;677771;29;1995;-77
2023/07/31 01:27:47;;;;;;;14.30;9.88;;;;;;;17.21;78.55;100417.72;682593;28;1386;-77
2023/07/31 01:28:13;;;;;;;15.73;10.23;;;;;;;17.28;78.79;100422.97;685650;28;1223;-77
2023/07/31 01:29:10;;;;;;;15.88;10.65;;;;;;;17.37;78.69;100436.09;688070;28;1034;-79
2023/07/31 01:29:37;;;;;;;17.90;11.10;;;;;;;17.32;78.87;100424.72;681052;28;1275;-79
2023/07/31 01:30:10;;;;;;;16.98;10.52;;;;;;;17.40;78.83;100428.19;684334;28;1975;-78
2023/07/31 01:30:41;;;;;;;15.60;9.80;;;;;;;17.36;78.69;100419.41;682720;29;1096;-78
2023/07/31 01:31:06;;;;;;;15.18;10.45;;;;;;;17.42;78.73;100425.53;682680;29;1635;-77
2023/07/31 01:31:29;;;;;;;14.90;10.63;;;;;;;17.44;78.77;100426.41;682483;28;1505;-78
2023/07/31 01:31:55;;;;;;;14.15;10.20;;;;;;;17.46;78.80;100428.13;677730;29;856;-79
2023/07/31 01:32:18;;;;;;;18.33;10.80;;;;;;;17.48;78.71;100418.47;678324;29;1104;-78
2023/07/31 01:32:40;;;;;;;19.45;11.45;;;;;;;17.51;78.61;100415.78;685127;28;1722;-77
2023/07/31 01:33:06;;;;;;;19.90;11.38;;;;;;;17.58;78.51;100426.31;685635;28;828;-78
2023/07/31 01:33:28;;;;;;;15.35;10.43;;;;;;;17.54;78.70;100425.47;680007;28;1183;-78
2023/07/31 01:33:53;;;;;;;16.10;10.85;;;;;;;17.62;78.43;100425.38;680251;29;1251;-77
2023/07/31 01:34:17;;;;;;;16.42;10.90;;;;;;;17.61;78.56;100415.72;682886;29;1109;-78
2023/07/31 01:34:39;;;;;;;18.20;11.55;;;;;;;17.63;78.35;100419.22;682002;29;1337;-78
2023/07/31 01:35:01;;;;;;;21.45;11.75;;;;;;;17.65;78.61;100426.25;677903;29;845;-78
2023/07/31 01:35:21;;;;;;;24.58;12.27;;;;;;;17.62;78.18;100406.91;688026;28;1483;-78
2023/07/31 01:35:44;;;;;;;24.80;12.18;;;;;;;17.67;78.37;100418.34;687769;28;1116;-78
2023/07/31 01:36:05;;;;;;;24.27;12.32;;;;;;;17.64;78.57;100415.72;683393;28;1397;-77
2023/07/31 01:36:27;;;;;;;22.65;12.48;;;;;;;17.70;78.63;100430.63;685407;28;1258;-78
2023/07/31 01:36:47;;;;;;;21.70;12.57;;;;;;;17.70;78.54;100415.66;682993;28;1387;-78
2023/07/31 01:37:08;;;;;;;20.67;12.63;;;;;;;17.69;78.20;100411.28;683016;29;1359;-78
2023/07/31 01:37:32;;;;;;;20.35;12.60;;;;;;;17.78;78.55;100419.13;677554;29;1625;-77
2023/07/31 01:37:54;;;;;;;20.33;12.50;;;;;;;17.73;78.65;100415.66;683050;28;2011;-78
2023/07/31 01:38:14;;;;;;;20.88;13.02;;;;;;;17.76;78.20;100405.06;687543;28;1959;-78
2023/07/31 01:38:35;;;;;;;20.45;12.88;;;;;;;17.78;78.20;100402.41;682696;28;1505;-78
2023/07/31 01:39:00;;;;;;;21.63;12.95;;;;;;;17.84;78.32;100422.59;683056;29;795;-78
2023/07/31 01:39:21;;;;;;;21.42;12.70;;;;;;;17.76;78.24;100397.16;682919;29;1083;-78
2023/07/31 01:39:41;;;;;;;22.30;12.85;;;;;;;17.84;78.17;100410.28;681868;29;1372;-78
2023/07/31 01:40:03;;;;;;;23.93;12.90;;;;;;;17.86;78.21;100413.78;686544;28;1217;-77
2023/07/31 01:40:24;;;;;;;23.73;13.32;;;;;;;17.87;77.98;100412.00;688396;28;1099;-77
2023/07/31 01:40:44;;;;;;;20.58;13.10;;;;;;;17.79;78.21;100402.41;688530;28;1512;-78
2023/07/31 01:41:05;;;;;;;22.88;13.98;;;;;;;17.85;78.36;100413.78;681846;28;1295;-78
2023/07/31 01:41:26;;;;;;;23.70;13.97;;;;;;;17.89;78.18;100411.13;686039;28;1163;-78
2023/07/31 01:41:47;;;;;;;24.67;13.80;;;;;;;17.87;78.21;100401.44;683698;29;992;-77
2023/07/31 01:42:07;;;;;;;21.80;13.27;;;;;;;17.86;77.81;100404.97;684918;28;1104;-77
2023/07/31 01:42:28;;;;;;;22.67;13.65;;;;;;;17.88;77.92;100398.81;688094;28;1174;-77
2023/07/31 01:42:48;;;;;;;24.17;14.50;;;;;;;17.87;78.02;100409.38;689049;28;1668;-80
2023/07/31 01:43:09;;;;;;;29.40;14.80;;;;;;;17.89;78.10;100420.81;683223;28;1159;-77
2023/07/31 01:43:29;;;;;;;28.20;15.02;;;;;;;17.90;78.14;100404.09;683181;29;1191;-76
2023/07/31 01:43:50;;;;;;;25.23;14.80;;;;;;;17.97;78.09;100432.19;683867;28;1191;-77
2023/07/31 01:44:11;;;;;;;21.48;14.90;;;;;;;17.90;77.74;100407.59;685782;28;1009;-79
2023/07/31 01:44:32;;;;;;;23.43;15.00;;;;;;;17.99;78.11;100432.16;688420;28;1197;-78
2023/07/31 01:44:53;;;;;;;25.67;15.63;;;;;;;17.95;77.94;100410.22;683414;28;1403;-77
2023/07/31 01:45:14;;;;;;;27.98;15.40;;;;;;;17.99;77.89;100406.63;685617;28;1079;-78
2023/07/31 01:45:35;;;;;;;28.30;15.23;;;;;;;17.94;77.85;100392.59;680407;29;1976;-78
2023/07/31 01:45:55;;;;;;;29.25;15.68;;;;;;;17.95;78.07;100407.56;685901;28;1127;-78
2023/07/31 01:46:16;;;;;;;27.37;16.00;;;;;;;17.96;78.04;100414.59;686421;28;1084;-79
2023/07/31 01:46:37;;;;;;;24.95;15.15;;;;;;;17.97;78.03;100408.44;684481;28;1093;-78
2023/07/31 01:46:59;;;;;;;23.80;14.57;;;;;;;17.99;77.84;100416.31;682878;29;1375;-78
2023/07/31 01:47:20;;;;;;;23.55;14.48;;;;;;;17.97;77.69;100411.06;682629;29;1869;-77
2023/07/31 01:47:41;;;;;;;24.13;14.97;;;;;;;17.99;77.99;100418.94;685022;28;1470;-77
2023/07/31 01:48:02;;;;;;;26.15;14.98;;;;;;;18.00;77.87;100408.38;688588;28;1575;-77
2023/07/31 01:48:22;;;;;;;25.92;14.80;;;;;;;18.01;77.95;100414.56;687602;28;1743;-77
2023/07/31 01:48:43;;;;;;;28.37;15.87;;;;;;;17.98;77.94;100402.25;682824;29;1025;-77
2023/07/31 01:49:06;;;;;;;26.25;15.85;;;;;;;17.97;78.13;100400.50;682188;29;1155;-78